Terminal Aerodrome Forecast
Issued by NWS Mt. Holly, NJ

Home | Current Version | Previous Version | Text Only | Print | Product List | Glossary On
Versions: 1 2 3 4 5 6 7 8 9 10 11 12 13 14 15 16 17 18 19 20 21 22 23 24
000
FTUS41 KPHI 180521
TAFPHL
TAF
KPHL 180521Z 1806/1912 VRB03KT P6SM SCT250
     FM181100 33006KT P6SM SCT250
     FM181600 27010KT P6SM SCT250
     FM190200 34010KT P6SM SCT250
     FM190600 03008KT P6SM SKC=

USA.gov is the U.S. government's official web portal to all federal, state and local government web resources and services.